sensor_id;sensor_type;location;lat;lon;timestamp;pressure;altitude;pressure_sealevel;temperature;humidity
30110;BME280;14965;50.660;13.226;2022-12-07T00:01:06;94548.47;;;-0.41;100.00
30110;BME280;14965;50.660;13.226;2022-12-07T00:03:35;94550.06;;;-0.37;100.00
30110;BME280;14965;50.660;13.226;2022-12-07T00:06:03;94543.84;;;-0.34;100.00
30110;BME280;14965;50.660;13.226;2022-12-07T00:08:29;94548.53;;;-0.31;100.00
30110;BME280;14965;50.660;13.226;2022-12-07T00:11:00;94538.84;;;-0.32;100.00
30110;BME280;14965;50.660;13.226;2022-12-07T00:13:26;94540.78;;;-0.32;100.00
30110;BME280;14965;50.660;13.226;2022-12-07T00:15:52;94532.25;;;-0.31;100.00
30110;BME280;14965;50.660;13.226;2022-12-07T00:18:18;94542.72;;;-0.33;100.00
30110;BME280;14965;50.660;13.226;2022-12-07T00:20:46;94536.09;;;-0.35;100.00
30110;BME280;14965;50.660;13.226;2022-12-07T00:23:11;94541.53;;;-0.35;100.00
30110;BME280;14965;50.660;13.226;2022-12-07T00:25:37;94531.44;;;-0.35;100.00
30110;BME280;14965;50.660;13.226;2022-12-07T00:28:03;94529.50;;;-0.34;100.00
30110;BME280;14965;50.660;13.226;2022-12-07T00:30:29;94522.16;;;-0.34;100.00
30110;BME280;14965;50.660;13.226;2022-12-07T00:32:55;94518.25;;;-0.40;100.00
30110;BME280;14965;50.660;13.226;2022-12-07T00:35:21;94522.16;;;-0.37;100.00
30110;BME280;14965;50.660;13.226;2022-12-07T00:37:48;94522.47;;;-0.42;100.00
30110;BME280;14965;50.660;13.226;2022-12-07T00:40:14;94526.72;;;-0.45;100.00
30110;BME280;14965;50.660;13.226;2022-12-07T00:42:40;94517.44;;;-0.44;100.00
30110;BME280;14965;50.660;13.226;2022-12-07T00:45:07;94516.66;;;-0.44;100.00
30110;BME280;14965;50.660;13.226;2022-12-07T00:47:33;94520.09;;;-0.51;100.00
30110;BME280;14965;50.660;13.226;2022-12-07T00:49:59;94522.81;;;-0.47;100.00
30110;BME280;14965;50.660;13.226;2022-12-07T00:52:25;94534.09;;;-0.45;100.00
30110;BME280;14965;50.660;13.226;2022-12-07T00:54:53;94529.09;;;-0.40;100.00
30110;BME280;14965;50.660;13.226;2022-12-07T00:57:18;94522.91;;;-0.37;100.00
30110;BME280;14965;50.660;13.226;2022-12-07T00:59:44;94521.34;;;-0.38;100.00
30110;BME280;14965;50.660;13.226;2022-12-07T01:02:10;94521.75;;;-0.36;100.00
30110;BME280;14965;50.660;13.226;2022-12-07T01:04:36;94521.72;;;-0.39;100.00
30110;BME280;14965;50.660;13.226;2022-12-07T01:07:02;94527.53;;;-0.41;100.00
30110;BME280;14965;50.660;13.226;2022-12-07T01:09:28;94526.38;;;-0.40;100.00
30110;BME280;14965;50.660;13.226;2022-12-07T01:11:55;94517.44;;;-0.44;100.00
30110;BME280;14965;50.660;13.226;2022-12-07T01:14:21;94518.19;;;-0.47;100.00
30110;BME280;14965;50.660;13.226;2022-12-07T01:16:47;94510.00;;;-0.51;100.00
30110;BME280;14965;50.660;13.226;2022-12-07T01:19:13;94522.78;;;-0.51;100.00
30110;BME280;14965;50.660;13.226;2022-12-07T01:21:39;94516.97;;;-0.53;100.00
30110;BME280;14965;50.660;13.226;2022-12-07T01:24:06;94525.50;;;-0.51;100.00
30110;BME280;14965;50.660;13.226;2022-12-07T01:26:33;94520.06;;;-0.55;100.00
30110;BME280;14965;50.660;13.226;2022-12-07T01:29:00;94515.44;;;-0.54;100.00
30110;BME280;14965;50.660;13.226;2022-12-07T01:31:27;94518.50;;;-0.56;100.00
30110;BME280;14965;50.660;13.226;2022-12-07T01:33:54;94520.44;;;-0.56;100.00
30110;BME280;14965;50.660;13.226;2022-12-07T01:36:22;94518.50;;;-0.56;100.00
30110;BME280;14965;50.660;13.226;2022-12-07T01:38:50;94519.25;;;-0.59;100.00
30110;BME280;14965;50.660;13.226;2022-12-07T01:41:16;94515.44;;;-0.54;100.00
30110;BME280;14965;50.660;13.226;2022-12-07T01:44:15;94518.16;;;-0.54;100.00
30110;BME280;14965;50.660;13.226;2022-12-07T01:46:42;94510.34;;;-0.59;100.00
30110;BME280;14965;50.660;13.226;2022-12-07T01:49:10;94519.25;;;-0.59;100.00
30110;BME280;14965;50.660;13.226;2022-12-07T01:51:40;94509.94;;;-0.61;100.00
30110;BME280;14965;50.660;13.226;2022-12-07T01:54:08;94507.22;;;-0.61;100.00
30110;BME280;14965;50.660;13.226;2022-12-07T01:56:38;94496.78;;;-0.59;100.00
30110;BME280;14965;50.660;13.226;2022-12-07T01:59:05;94502.63;;;-0.57;100.00
30110;BME280;14965;50.660;13.226;2022-12-07T02:01:33;94494.47;;;-0.57;100.00
30110;BME280;14965;50.660;13.226;2022-12-07T02:03:59;94492.94;;;-0.58;100.00
30110;BME280;14965;50.660;13.226;2022-12-07T02:06:25;94496.03;;;-0.56;100.00
30110;BME280;14965;50.660;13.226;2022-12-07T02:08:52;94494.47;;;-0.57;100.00
30110;BME280;14965;50.660;13.226;2022-12-07T02:11:19;94491.00;;;-0.58;100.00
30110;BME280;14965;50.660;13.226;2022-12-07T02:13:46;94491.75;;;-0.57;100.00
30110;BME280;14965;50.660;13.226;2022-12-07T02:16:21;94495.19;;;-0.64;100.00
30110;BME280;14965;50.660;13.226;2022-12-07T02:19:01;94489.00;;;-0.64;100.00
30110;BME280;14965;50.660;13.226;2022-12-07T02:21:40;94489.75;;;-0.64;100.00
30110;BME280;14965;50.660;13.226;2022-12-07T02:24:15;94494.78;;;-0.69;100.00
30110;BME280;14965;50.660;13.226;2022-12-07T02:27:01;94487.78;;;-0.70;100.00
30110;BME280;14965;50.660;13.226;2022-12-07T02:29:35;94493.97;;;-0.73;100.00
30110;BME280;14965;50.660;13.226;2022-12-07T02:32:07;94487.38;;;-0.72;100.00
30110;BME280;14965;50.660;13.226;2022-12-07T02:34:43;94488.94;;;-0.71;100.00
30110;BME280;14965;50.660;13.226;2022-12-07T02:37:16;94483.13;;;-0.73;100.00
30110;BME280;14965;50.660;13.226;2022-12-07T02:39:48;94481.47;;;-0.85;100.00
30110;BME280;14965;50.660;13.226;2022-12-07T02:42:23;94490.63;;;-1.01;100.00
30110;BME280;14965;50.660;13.226;2022-12-07T02:44:51;94476.72;;;-0.99;100.00
30110;BME280;14965;50.660;13.226;2022-12-07T02:47:18;94481.31;;;-1.03;100.00
30110;BME280;14965;50.660;13.226;2022-12-07T02:49:48;94473.88;;;-1.10;100.00
30110;BME280;14965;50.660;13.226;2022-12-07T02:52:15;94469.91;;;-1.23;99.34
30110;BME280;14965;50.660;13.226;2022-12-07T02:54:41;94466.84;;;-1.18;99.16
30110;BME280;14965;50.660;13.226;2022-12-07T03:00:04;94454.84;;;-1.20;98.88
30110;BME280;14965;50.660;13.226;2022-12-07T03:02:38;94452.09;;;-1.24;98.71
30110;BME280;14965;50.660;13.226;2022-12-07T03:05:40;94459.75;;;-1.30;98.43
30110;BME280;14965;50.660;13.226;2022-12-07T03:08:13;94457.47;;;-1.28;98.48
30110;BME280;14965;50.660;13.226;2022-12-07T03:10:50;94457.06;;;-1.30;98.47
30110;BME280;14965;50.660;13.226;2022-12-07T03:13:25;94445.44;;;-1.34;98.38
30110;BME280;14965;50.660;13.226;2022-12-07T03:15:58;94444.63;;;-1.38;98.51
30110;BME280;14965;50.660;13.226;2022-12-07T03:18:31;94439.19;;;-1.38;98.41
30110;BME280;14965;50.660;13.226;2022-12-07T03:21:02;94445.00;;;-1.36;98.35
30110;BME280;14965;50.660;13.226;2022-12-07T03:23:33;94448.41;;;-1.42;98.56
30110;BME280;14965;50.660;13.226;2022-12-07T03:26:01;94443.81;;;-1.42;98.65
30110;BME280;14965;50.660;13.226;2022-12-07T03:28:32;94439.94;;;-1.41;98.71
30110;BME280;14965;50.660;13.226;2022-12-07T03:31:05;94444.97;;;-1.39;98.58
30110;BME280;14965;50.660;13.226;2022-12-07T03:33:40;94443.78;;;-1.45;98.41
30110;BME280;14965;50.660;13.226;2022-12-07T03:36:11;94446.06;;;-1.47;98.70
30110;BME280;14965;50.660;13.226;2022-12-07T03:38:44;94441.38;;;-1.51;98.87
30110;BME280;14965;50.660;13.226;2022-12-07T03:41:12;94449.91;;;-1.48;98.82
30110;BME280;14965;50.660;13.226;2022-12-07T03:43:42;94439.03;;;-1.52;99.13
30110;BME280;14965;50.660;13.226;2022-12-07T03:46:17;94440.97;;;-1.53;99.22
30110;BME280;14965;50.660;13.226;2022-12-07T03:48:52;94442.50;;;-1.55;99.28
30110;BME280;14965;50.660;13.226;2022-12-07T03:51:22;94438.56;;;-1.61;99.31
30110;BME280;14965;50.660;13.226;2022-12-07T03:53:54;94450.22;;;-1.57;99.29
30110;BME280;14965;50.660;13.226;2022-12-07T03:56:22;94445.19;;;-1.55;99.51
30110;BME280;14965;50.660;13.226;2022-12-07T03:58:49;94438.19;;;-1.60;99.71
30110;BME280;14965;50.660;13.226;2022-12-07T04:01:17;94436.59;;;-1.64;100.00
30110;BME280;14965;50.660;13.226;2022-12-07T04:03:43;94443.59;;;-1.60;100.00
30110;BME280;14965;50.660;13.226;2022-12-07T04:06:09;94428.94;;;-1.55;100.00
30110;BME280;14965;50.660;13.226;2022-12-07T04:08:36;94438.97;;;-1.59;100.00
30110;BME280;14965;50.660;13.226;2022-12-07T04:11:02;94431.97;;;-1.64;99.78
30110;BME280;14965;50.660;13.226;2022-12-07T04:13:28;94437.31;;;-1.71;99.96
30110;BME280;14965;50.660;13.226;2022-12-07T04:15:54;94435.00;;;-1.69;100.00
30110;BME280;14965;50.660;13.226;2022-12-07T04:18:22;94437.75;;;-1.65;100.00
30110;BME280;14965;50.660;13.226;2022-12-07T04:20:48;94425.72;;;-1.68;99.88
30110;BME280;14965;50.660;13.226;2022-12-07T04:23:14;94427.66;;;-1.68;100.00
30110;BME280;14965;50.660;13.226;2022-12-07T04:25:40;94421.50;;;-1.65;100.00
30110;BME280;14965;50.660;13.226;2022-12-07T04:28:06;94414.94;;;-1.64;99.88
30110;BME280;14965;50.660;13.226;2022-12-07T04:30:32;94421.81;;;-1.74;100.00
30110;BME280;14965;50.660;13.226;2022-12-07T04:32:58;94413.31;;;-1.72;100.00
30110;BME280;14965;50.660;13.226;2022-12-07T04:35:25;94406.72;;;-1.75;100.00
30110;BME280;14965;50.660;13.226;2022-12-07T04:37:51;94403.25;;;-1.76;99.94
30110;BME280;14965;50.660;13.226;2022-12-07T04:40:17;94397.81;;;-1.76;99.80
30110;BME280;14965;50.660;13.226;2022-12-07T04:42:43;94399.38;;;-1.74;99.77
30110;BME280;14965;50.660;13.226;2022-12-07T04:45:09;94392.03;;;-1.74;99.51
30110;BME280;14965;50.660;13.226;2022-12-07T04:47:35;94395.44;;;-1.81;99.23
30110;BME280;14965;50.660;13.226;2022-12-07T04:50:01;94399.28;;;-1.82;99.04
30110;BME280;14965;50.660;13.226;2022-12-07T04:52:29;94391.19;;;-1.82;98.95
30110;BME280;14965;50.660;13.226;2022-12-07T04:54:55;94382.31;;;-1.79;99.23
30110;BME280;14965;50.660;13.226;2022-12-07T04:57:21;94384.69;;;-1.73;99.31
30110;BME280;14965;50.660;13.226;2022-12-07T04:59:47;94383.13;;;-1.74;99.31
30110;BME280;14965;50.660;13.226;2022-12-07T05:02:13;94388.97;;;-1.69;99.06
30110;BME280;14965;50.660;13.226;2022-12-07T05:04:38;94383.59;;;-1.65;98.94
30110;BME280;14965;50.660;13.226;2022-12-07T05:07:04;94395.25;;;-1.61;99.28
30110;BME280;14965;50.660;13.226;2022-12-07T05:09:32;94379.84;;;-1.54;99.61
30110;BME280;14965;50.660;13.226;2022-12-07T05:11:58;94383.72;;;-1.51;99.31
30110;BME280;14965;50.660;13.226;2022-12-07T05:14:24;94379.81;;;-1.57;99.30
30110;BME280;14965;50.660;13.226;2022-12-07T05:16:50;94390.66;;;-1.57;99.73
30110;BME280;14965;50.660;13.226;2022-12-07T05:19:17;94392.53;;;-1.61;99.93
30110;BME280;14965;50.660;13.226;2022-12-07T05:21:43;94384.47;;;-1.58;100.00
30110;BME280;14965;50.660;13.226;2022-12-07T05:24:11;94398.38;;;-1.56;100.00
30110;BME280;14965;50.660;13.226;2022-12-07T05:26:38;94393.06;;;-1.48;100.00
30110;BME280;14965;50.660;13.226;2022-12-07T05:29:04;94389.59;;;-1.45;100.00
30110;BME280;14965;50.660;13.226;2022-12-07T05:31:30;94383.41;;;-1.46;100.00
30110;BME280;14965;50.660;13.226;2022-12-07T05:33:56;94381.47;;;-1.45;100.00
30110;BME280;14965;50.660;13.226;2022-12-07T05:36:22;94384.97;;;-1.45;100.00
30110;BME280;14965;50.660;13.226;2022-12-07T05:38:49;94376.44;;;-1.43;100.00
30110;BME280;14965;50.660;13.226;2022-12-07T05:41:17;94377.66;;;-1.41;100.00
30110;BME280;14965;50.660;13.226;2022-12-07T05:43:44;94377.66;;;-1.41;100.00
30110;BME280;14965;50.660;13.226;2022-12-07T05:46:10;94381.56;;;-1.35;100.00
30110;BME280;14965;50.660;13.226;2022-12-07T05:48:36;94370.72;;;-1.35;100.00
30110;BME280;14965;50.660;13.226;2022-12-07T05:51:02;94366.91;;;-1.27;100.00
30110;BME280;14965;50.660;13.226;2022-12-07T05:53:28;94371.59;;;-1.23;100.00
30110;BME280;14965;50.660;13.226;2022-12-07T05:55:54;94382.81;;;-1.25;100.00
30110;BME280;14965;50.660;13.226;2022-12-07T05:58:20;94365.75;;;-1.26;100.00
30110;BME280;14965;50.660;13.226;2022-12-07T06:00:47;94367.69;;;-1.26;100.00
30110;BME280;14965;50.660;13.226;2022-12-07T06:03:13;94367.38;;;-1.21;100.00
30110;BME280;14965;50.660;13.226;2022-12-07T06:05:39;94372.03;;;-1.14;100.00
30110;BME280;14965;50.660;13.226;2022-12-07T06:08:05;94359.28;;;-1.14;100.00
30110;BME280;14965;50.660;13.226;2022-12-07T06:10:31;94359.66;;;-1.15;100.00
30110;BME280;14965;50.660;13.226;2022-12-07T06:12:56;94351.91;;;-1.13;100.00
30110;BME280;14965;50.660;13.226;2022-12-07T06:15:22;94358.53;;;-1.11;100.00
30110;BME280;14965;50.660;13.226;2022-12-07T06:17:50;94356.16;;;-1.19;100.00
30110;BME280;14965;50.660;13.226;2022-12-07T06:20:16;94355.03;;;-1.11;100.00
30110;BME280;14965;50.660;13.226;2022-12-07T06:22:42;94359.34;;;-1.07;100.00
30110;BME280;14965;50.660;13.226;2022-12-07T06:25:08;94362.41;;;-1.12;100.00
30110;BME280;14965;50.660;13.226;2022-12-07T06:27:34;94358.13;;;-1.13;100.00
30110;BME280;14965;50.660;13.226;2022-12-07T06:30:00;94353.84;;;-1.14;100.00
30110;BME280;14965;50.660;13.226;2022-12-07T06:32:26;94356.19;;;-1.16;100.00
30110;BME280;14965;50.660;13.226;2022-12-07T06:34:54;94349.63;;;-1.11;100.00
30110;BME280;14965;50.660;13.226;2022-12-07T06:37:20;94349.66;;;-1.08;100.00
30110;BME280;14965;50.660;13.226;2022-12-07T06:39:46;94348.50;;;-1.07;100.00
30110;BME280;14965;50.660;13.226;2022-12-07T06:42:12;94348.88;;;-1.08;100.00
30110;BME280;14965;50.660;13.226;2022-12-07T06:44:38;94356.66;;;-1.03;100.00
30110;BME280;14965;50.660;13.226;2022-12-07T06:47:04;94352.41;;;-1.01;100.00
30110;BME280;14965;50.660;13.226;2022-12-07T06:49:29;94355.50;;;-1.02;100.00
30110;BME280;14965;50.660;13.226;2022-12-07T06:51:57;94356.25;;;-1.02;100.00
30110;BME280;14965;50.660;13.226;2022-12-07T06:54:23;94350.50;;;-1.00;100.00
30110;BME280;14965;50.660;13.226;2022-12-07T06:56:49;94362.09;;;-0.99;100.00
30110;BME280;14965;50.660;13.226;2022-12-07T06:59:15;94358.63;;;-0.96;100.00
30110;BME280;14965;50.660;13.226;2022-12-07T07:01:41;94361.72;;;-0.98;100.00
30110;BME280;14965;50.660;13.226;2022-12-07T07:04:08;94352.44;;;-0.97;100.00
30110;BME280;14965;50.660;13.226;2022-12-07T07:06:34;94350.13;;;-0.95;100.00
30110;BME280;14965;50.660;13.226;2022-12-07T07:09:02;94352.03;;;-0.99;100.00
30110;BME280;14965;50.660;13.226;2022-12-07T07:11:28;94346.22;;;-0.97;100.00
30110;BME280;14965;50.660;13.226;2022-12-07T07:13:54;94352.44;;;-0.97;100.00
30110;BME280;14965;50.660;13.226;2022-12-07T07:16:20;94362.94;;;-0.92;100.00
30110;BME280;14965;50.660;13.226;2022-12-07T07:21:29;94357.56;;;-0.81;100.00
30110;BME280;14965;50.660;13.226;2022-12-07T07:23:54;94362.59;;;-0.83;100.00
30110;BME280;14965;50.660;13.226;2022-12-07T07:26:22;94362.59;;;-0.80;100.00
30110;BME280;14965;50.660;13.226;2022-12-07T07:28:48;94371.53;;;-0.76;100.00
30110;BME280;14965;50.660;13.226;2022-12-07T07:31:14;94363.41;;;-0.76;100.00
30110;BME280;14965;50.660;13.226;2022-12-07T07:33:39;94380.03;;;-0.81;100.00
30110;BME280;14965;50.660;13.226;2022-12-07T07:36:06;94373.13;;;-0.74;100.00
30110;BME280;14965;50.660;13.226;2022-12-07T07:38:32;94378.94;;;-0.69;100.00
30110;BME280;14965;50.660;13.226;2022-12-07T07:40:57;94377.41;;;-0.70;100.00
30110;BME280;14965;50.660;13.226;2022-12-07T07:43:25;94377.00;;;-0.68;100.00
30110;BME280;14965;50.660;13.226;2022-12-07T07:45:50;94373.13;;;-0.67;100.00
30110;BME280;14965;50.660;13.226;2022-12-07T07:48:16;94377.84;;;-0.61;100.00
30110;BME280;14965;50.660;13.226;2022-12-07T07:50:42;94379.03;;;-0.58;100.00
30110;BME280;14965;50.660;13.226;2022-12-07T07:53:08;94387.16;;;-0.58;100.00
30110;BME280;14965;50.660;13.226;2022-12-07T07:55:34;94383.28;;;-0.57;100.00
30110;BME280;14965;50.660;13.226;2022-12-07T07:58:00;94378.22;;;-0.59;100.00
30110;BME280;14965;50.660;13.226;2022-12-07T08:00:27;94383.28;;;-0.57;100.00
30110;BME280;14965;50.660;13.226;2022-12-07T08:02:53;94385.59;;;-0.56;100.00
30110;BME280;14965;50.660;13.226;2022-12-07T08:05:19;94377.50;;;-0.52;100.00
30110;BME280;14965;50.660;13.226;2022-12-07T08:07:45;94394.19;;;-0.50;100.00
30110;BME280;14965;50.660;13.226;2022-12-07T08:10:12;94394.19;;;-0.46;100.00
30110;BME280;14965;50.660;13.226;2022-12-07T08:12:39;94391.88;;;-0.44;100.00
30110;BME280;14965;50.660;13.226;2022-12-07T08:15:06;94401.97;;;-0.41;100.00
30110;BME280;14965;50.660;13.226;2022-12-07T08:17:34;94399.63;;;-0.43;100.00
30110;BME280;14965;50.660;13.226;2022-12-07T08:20:00;94391.13;;;-0.41;100.00
30110;BME280;14965;50.660;13.226;2022-12-07T08:22:26;94396.16;;;-0.40;100.00
30110;BME280;14965;50.660;13.226;2022-12-07T08:24:52;94395.41;;;-0.37;100.00
30110;BME280;14965;50.660;13.226;2022-12-07T08:27:21;94396.19;;;-0.36;100.00
30110;BME280;14965;50.660;13.226;2022-12-07T08:29:47;94398.16;;;-0.33;100.00
30110;BME280;14965;50.660;13.226;2022-12-07T08:32:13;94404.69;;;-0.38;100.00
30110;BME280;14965;50.660;13.226;2022-12-07T08:34:41;94403.16;;;-0.35;100.00
30110;BME280;14965;50.660;13.226;2022-12-07T08:37:28;94405.50;;;-0.37;100.00
30110;BME280;14965;50.660;13.226;2022-12-07T08:58:14;94427.63;;;-0.28;100.00
30110;BME280;14965;50.660;13.226;2022-12-07T09:00:40;94427.63;;;-0.28;100.00
30110;BME280;14965;50.660;13.226;2022-12-07T09:03:06;94427.25;;;-0.23;100.00
30110;BME280;14965;50.660;13.226;2022-12-07T09:05:33;94414.06;;;-0.21;100.00
30110;BME280;14965;50.660;13.226;2022-12-07T09:08:00;94416.81;;;-0.17;100.00
30110;BME280;14965;50.660;13.226;2022-12-07T09:10:27;94426.13;;;-0.18;100.00
30110;BME280;14965;50.660;13.226;2022-12-07T09:12:53;94421.09;;;-0.16;100.00
30110;BME280;14965;50.660;13.226;2022-12-07T09:15:21;94421.88;;;-0.09;100.00
30110;BME280;14965;50.660;13.226;2022-12-07T09:17:47;94426.56;;;-0.06;100.00
30110;BME280;14965;50.660;13.226;2022-12-07T09:20:13;94416.50;;;-0.02;100.00
30110;BME280;14965;50.660;13.226;2022-12-07T09:22:39;94420.78;;;0.07;100.00
30110;BME280;14965;50.660;13.226;2022-12-07T09:25:05;94416.91;;;0.08;100.00
30110;BME280;14965;50.660;13.226;2022-12-07T09:27:31;94420.81;;;0.10;100.00
30110;BME280;14965;50.660;13.226;2022-12-07T09:29:57;94419.28;;;0.13;100.00
30110;BME280;14965;50.660;13.226;2022-12-07T09:32:25;94423.13;;;0.12;100.00
30110;BME280;14965;50.660;13.226;2022-12-07T09:34:51;94424.31;;;0.14;100.00
30110;BME280;14965;50.660;13.226;2022-12-07T09:37:16;94415.00;;;0.15;100.00
30110;BME280;14965;50.660;13.226;2022-12-07T09:39:42;94419.25;;;0.06;100.00
30110;BME280;14965;50.660;13.226;2022-12-07T09:42:08;94422.72;;;0.06;100.00
30110;BME280;14965;50.660;13.226;2022-12-07T09:44:36;94405.66;;;0.06;100.00
30110;BME280;14965;50.660;13.226;2022-12-07T09:47:02;94407.59;;;0.02;100.00
30110;BME280;14965;50.660;13.226;2022-12-07T09:49:31;94403.69;;;-0.01;100.00
30110;BME280;14965;50.660;13.226;2022-12-07T09:52:03;94392.44;;;-0.07;100.00
30110;BME280;14965;50.660;13.226;2022-12-07T09:54:46;94398.25;;;-0.08;100.00
30110;BME280;14965;50.660;13.226;2022-12-07T09:57:12;94398.22;;;-0.15;100.00
30110;BME280;14965;50.660;13.226;2022-12-07T09:59:38;94399.75;;;-0.14;100.00
30110;BME280;14965;50.660;13.226;2022-12-07T10:02:23;94405.94;;;-0.17;100.00
30110;BME280;14965;50.660;13.226;2022-12-07T10:04:51;94402.09;;;-0.13;100.00
30110;BME280;14965;50.660;13.226;2022-12-07T10:07:17;94388.97;;;-0.04;100.00
30110;BME280;14965;50.660;13.226;2022-12-07T10:09:43;94400.63;;;0.01;100.00
30110;BME280;14965;50.660;13.226;2022-12-07T10:12:11;94396.72;;;-0.02;100.00
30110;BME280;14965;50.660;13.226;2022-12-07T10:14:39;94399.06;;;0.07;100.00
30110;BME280;14965;50.660;13.226;2022-12-07T10:17:33;94394.81;;;0.09;100.00
30110;BME280;14965;50.660;13.226;2022-12-07T10:20:21;94379.28;;;0.06;100.00
30110;BME280;14965;50.660;13.226;2022-12-07T10:22:55;94387.81;;;0.08;100.00
30110;BME280;14965;50.660;13.226;2022-12-07T10:25:22;94378.16;;;0.11;100.00
30110;BME280;14965;50.660;13.226;2022-12-07T10:27:57;94378.91;;;0.08;100.00
30110;BME280;14965;50.660;13.226;2022-12-07T10:30:23;94378.13;;;0.07;100.00
30110;BME280;14965;50.660;13.226;2022-12-07T10:32:49;94384.34;;;0.11;100.00
30110;BME280;14965;50.660;13.226;2022-12-07T10:35:23;94376.63;;;0.13;100.00
30110;BME280;14965;50.660;13.226;2022-12-07T10:37:51;94380.88;;;0.14;100.00
30110;BME280;14965;50.660;13.226;2022-12-07T10:40:30;94380.91;;;0.21;100.00
30110;BME280;14965;50.660;13.226;2022-12-07T10:43:17;94383.63;;;0.21;100.00
30110;BME280;14965;50.660;13.226;2022-12-07T10:46:06;94376.63;;;0.28;100.00
30110;BME280;14965;50.660;13.226;2022-12-07T10:48:37;94367.72;;;0.31;100.00
30110;BME280;14965;50.660;13.226;2022-12-07T10:51:15;94363.47;;;0.37;100.00
30110;BME280;14965;50.660;13.226;2022-12-07T10:53:52;94367.75;;;0.38;100.00
30110;BME280;14965;50.660;13.226;2022-12-07T10:56:47;94365.03;;;0.38;100.00
30110;BME280;14965;50.660;13.226;2022-12-07T10:59:47;94370.84;;;0.40;100.00
30110;BME280;14965;50.660;13.226;2022-12-07T11:02:35;94360.38;;;0.42;100.00
30110;BME280;14965;50.660;13.226;2022-12-07T11:05:13;94364.25;;;0.44;100.00
30110;BME280;14965;50.660;13.226;2022-12-07T11:07:54;94365.03;;;0.41;100.00
30110;BME280;14965;50.660;13.226;2022-12-07T11:10:26;94358.03;;;0.37;100.00
30110;BME280;14965;50.660;13.226;2022-12-07T11:13:08;94362.31;;;0.34;100.00
30110;BME280;14965;50.660;13.226;2022-12-07T11:15:49;94360.75;;;0.37;100.00
30110;BME280;14965;50.660;13.226;2022-12-07T11:18:22;94360.38;;;0.42;100.00
30110;BME280;14965;50.660;13.226;2022-12-07T11:20:54;94363.47;;;0.44;100.00
30110;BME280;14965;50.660;13.226;2022-12-07T11:23:31;94352.63;;;0.44;100.00
30110;BME280;14965;50.660;13.226;2022-12-07T11:26:13;94350.66;;;0.37;100.00
30110;BME280;14965;50.660;13.226;2022-12-07T11:29:00;94356.84;;;0.27;100.00
30110;BME280;14965;50.660;13.226;2022-12-07T11:31:38;94341.34;;;0.28;100.00
30110;BME280;14965;50.660;13.226;2022-12-07T11:34:16;94337.44;;;0.25;100.00
30110;BME280;14965;50.660;13.226;2022-12-07T11:36:48;94336.28;;;0.22;100.00
30110;BME280;14965;50.660;13.226;2022-12-07T11:39:24;94347.91;;;0.19;100.00
30110;BME280;14965;50.660;13.226;2022-12-07T11:41:55;94347.91;;;0.19;100.00
30110;BME280;14965;50.660;13.226;2022-12-07T11:44:29;94349.06;;;0.18;100.00
30110;BME280;14965;50.660;13.226;2022-12-07T11:47:01;94345.59;;;0.21;100.00
30110;BME280;14965;50.660;13.226;2022-12-07T11:49:39;94345.94;;;0.16;100.00
30110;BME280;14965;50.660;13.226;2022-12-07T11:52:13;94345.59;;;0.21;100.00
30110;BME280;14965;50.660;13.226;2022-12-07T11:54:46;94344.06;;;0.28;100.00
30110;BME280;14965;50.660;13.226;2022-12-07T11:57:18;94341.34;;;0.28;100.00
30110;BME280;14965;50.660;13.226;2022-12-07T11:59:48;94344.44;;;0.26;100.00
30110;BME280;14965;50.660;13.226;2022-12-07T12:02:18;94341.31;;;0.24;100.00
30110;BME280;14965;50.660;13.226;2022-12-07T12:04:51;94334.75;;;0.21;100.00
30110;BME280;14965;50.660;13.226;2022-12-07T13:08:34;94306.06;;;0.42;100.00
30110;BME280;14965;50.660;13.226;2022-12-07T13:11:17;94297.91;;;0.38;100.00
30110;BME280;14965;50.660;13.226;2022-12-07T13:13:43;94305.25;;;0.41;100.00
30110;BME280;14965;50.660;13.226;2022-12-07T13:22:48;94290.91;;;0.23;100.00
30110;BME280;14965;50.660;13.226;2022-12-07T13:25:23;94292.06;;;0.26;100.00
30110;BME280;14965;50.660;13.226;2022-12-07T13:27:59;94297.47;;;0.29;100.00
30110;BME280;14965;50.660;13.226;2022-12-07T13:30:27;94290.91;;;0.27;99.95
30110;BME280;14965;50.660;13.226;2022-12-07T13:32:55;94295.56;;;0.22;100.00
30110;BME280;14965;50.660;13.226;2022-12-07T13:35:29;94293.59;;;0.23;100.00
30110;BME280;14965;50.660;13.226;2022-12-07T13:37:55;94288.94;;;0.23;100.00
30110;BME280;14965;50.660;13.226;2022-12-07T13:40:24;94288.19;;;0.27;100.00
30110;BME280;14965;50.660;13.226;2022-12-07T13:42:57;94283.53;;;0.23;100.00
30110;BME280;14965;50.660;13.226;2022-12-07T13:45:25;94282.75;;;0.19;100.00
30110;BME280;14965;50.660;13.226;2022-12-07T13:47:53;94291.66;;;0.16;100.00
30110;BME280;14965;50.660;13.226;2022-12-07T13:50:23;94298.66;;;0.17;100.00
30110;BME280;14965;50.660;13.226;2022-12-07T13:52:49;94297.47;;;0.15;100.00
30110;BME280;14965;50.660;13.226;2022-12-07T13:55:16;94307.56;;;0.18;100.00
30110;BME280;14965;50.660;13.226;2022-12-07T13:57:45;94299.03;;;0.23;100.00
30110;BME280;14965;50.660;13.226;2022-12-07T14:00:15;94302.94;;;0.22;100.00
30110;BME280;14965;50.660;13.226;2022-12-07T14:02:54;94307.19;;;0.19;100.00
30110;BME280;14965;50.660;13.226;2022-12-07T14:05:24;94291.28;;;0.18;100.00
30110;BME280;14965;50.660;13.226;2022-12-07T14:07:54;94297.09;;;0.16;100.00
30110;BME280;14965;50.660;13.226;2022-12-07T14:10:25;94289.75;;;0.17;100.00
30110;BME280;14965;50.660;13.226;2022-12-07T14:12:53;94292.06;;;0.18;100.00
30110;BME280;14965;50.660;13.226;2022-12-07T14:15:21;94291.28;;;0.18;100.00
30110;BME280;14965;50.660;13.226;2022-12-07T14:17:51;94290.13;;;0.19;100.00
30110;BME280;14965;50.660;13.226;2022-12-07T14:20:31;94284.28;;;0.20;100.00
30110;BME280;14965;50.660;13.226;2022-12-07T14:22:57;94281.97;;;0.19;100.00
30110;BME280;14965;50.660;13.226;2022-12-07T14:25:24;94293.22;;;0.17;100.00
30110;BME280;14965;50.660;13.226;2022-12-07T14:27:56;94282.72;;;0.16;100.00